Time;durP1;ratioP1;P1;durP2;ratioP2;P2;SDS_P1;SDS_P2;PMS_P1;PMS_P2;Temp;Humidity;BMP_temperature;BMP_pressure;BME280_temperature;BME280_humidity;BME280_pressure;Samples;Min_cycle;Max_cycle;Signal;HPM_P1;HPM_P2
2022/02/12 00:00:12;;;;;;;6.07;3.38;;;;;;;;;;5094435;28;20415;-76
2022/02/12 00:02:38;;;;;;;6.70;2.53;;;;;;;;;;5094308;28;20040;-76
2022/02/12 00:05:06;;;;;;;4.25;2.20;;;;;;;;;;5094325;28;20433;-76
2022/02/12 00:07:34;;;;;;;5.18;2.10;;;;;;;;;;5094462;28;20044;-76
2022/02/12 00:10:01;;;;;;;4.32;2.30;;;;;;;;;;5094236;28;20067;-76
2022/02/12 00:12:28;;;;;;;6.43;2.20;;;;;;;;;;5094515;28;20043;-76
2022/02/12 00:14:57;;;;;;;5.03;2.55;;;;;;;;;;5093440;28;20519;-76
2022/02/12 00:17:24;;;;;;;4.45;2.20;;;;;;;;;;5093145;28;20392;-76
2022/02/12 00:19:51;;;;;;;4.45;2.15;;;;;;;;;;5093231;28;20044;-75
2022/02/12 00:22:18;;;;;;;6.20;2.25;;;;;;;;;;5093637;28;20040;-76
2022/02/12 00:24:46;;;;;;;5.15;1.90;;;;;;;;;;5094376;28;20127;-75
2022/02/12 00:27:13;;;;;;;3.80;1.83;;;;;;;;;;5094213;28;20040;-75
2022/02/12 00:29:40;;;;;;;5.95;2.70;;;;;;;;;;5094282;28;20128;-76
2022/02/12 00:32:08;;;;;;;4.07;2.28;;;;;;;;;;5094382;28;20048;-76
2022/02/12 00:34:35;;;;;;;5.22;2.25;;;;;;;;;;5093972;28;20075;-76
2022/02/12 00:37:01;;;;;;;6.32;2.38;;;;;;;;;;5093108;28;20070;-76
2022/02/12 00:39:28;;;;;;;5.55;2.08;;;;;;;;;;5094222;28;20430;-76
2022/02/12 00:41:56;;;;;;;5.10;2.30;;;;;;;;;;5092729;28;20135;-76
2022/02/12 00:44:23;;;;;;;7.95;2.33;;;;;;;;;;5093845;28;20079;-76
2022/02/12 00:46:50;;;;;;;3.85;2.00;;;;;;;;;;5092900;28;20480;-76
2022/02/12 00:49:17;;;;;;;7.53;2.30;;;;;;;;;;5093279;28;20044;-76
2022/02/12 00:51:44;;;;;;;12.30;4.25;;;;;;;;;;5093860;28;20072;-75
2022/02/12 00:54:11;;;;;;;16.20;5.95;;;;;;;;;;5093798;28;20083;-75
2022/02/12 00:56:37;;;;;;;16.45;5.85;;;;;;;;;;5093992;28;20064;-76
2022/02/12 00:59:05;;;;;;;18.88;7.30;;;;;;;;;;5092875;28;20480;-76
2022/02/12 01:01:33;;;;;;;8.20;3.90;;;;;;;;;;5093143;28;20475;-76
2022/02/12 01:04:00;;;;;;;6.05;3.38;;;;;;;;;;5096811;28;20039;-76
2022/02/12 01:06:26;;;;;;;9.50;3.20;;;;;;;;;;5097447;28;20075;-75
2022/02/12 01:08:53;;;;;;;7.60;2.95;;;;;;;;;;5096464;28;20079;-75
2022/02/12 01:11:20;;;;;;;5.93;2.95;;;;;;;;;;5097385;28;20079;-75
2022/02/12 01:13:46;;;;;;;4.95;2.75;;;;;;;;;;5097533;28;20165;-75
2022/02/12 01:16:14;;;;;;;7.90;2.83;;;;;;;;;;5097365;28;20071;-75
2022/02/12 01:18:41;;;;;;;7.60;2.38;;;;;;;;;;5097353;28;20067;-75
2022/02/12 01:21:07;;;;;;;8.80;2.83;;;;;;;;;;5097285;28;20098;-76
2022/02/12 01:23:35;;;;;;;6.68;2.80;;;;;;;;;;5097221;28;20067;-75
2022/02/12 01:26:01;;;;;;;7.68;2.55;;;;;;;;;;5097103;28;20040;-75
2022/02/12 01:28:28;;;;;;;5.20;2.40;;;;;;;;;;5096399;28;20451;-76
2022/02/12 01:30:54;;;;;;;3.25;2.00;;;;;;;;;;5096806;28;20376;-75
2022/02/12 01:33:23;;;;;;;3.72;1.98;;;;;;;;;;5096704;28;20075;-75
2022/02/12 01:35:49;;;;;;;5.15;2.75;;;;;;;;;;5096693;28;20044;-75
2022/02/12 01:38:16;;;;;;;4.60;2.25;;;;;;;;;;5096116;28;20130;-75
2022/02/12 01:40:44;;;;;;;5.20;2.08;;;;;;;;;;5095321;28;20043;-76
2022/02/12 01:43:12;;;;;;;7.55;2.95;;;;;;;;;;5096764;28;20044;-75
2022/02/12 01:45:39;;;;;;;5.70;2.20;;;;;;;;;;5096774;28;20044;-75
2022/02/12 01:48:06;;;;;;;3.67;1.77;;;;;;;;;;5095705;28;20082;-75
2022/02/12 01:50:34;;;;;;;6.90;2.45;;;;;;;;;;5096385;28;20071;-75
2022/02/12 01:53:01;;;;;;;4.75;2.25;;;;;;;;;;5096631;28;20435;-76
2022/02/12 01:55:28;;;;;;;7.82;2.30;;;;;;;;;;5096545;28;20071;-75
2022/02/12 01:57:54;;;;;;;6.45;2.13;;;;;;;;;;5096530;28;20075;-76
2022/02/12 02:00:22;;;;;;;4.97;2.28;;;;;;;;;;5096219;28;20074;-76
2022/02/12 02:02:49;;;;;;;6.45;2.40;;;;;;;;;;5095975;28;20040;-76
2022/02/12 02:05:17;;;;;;;6.05;2.33;;;;;;;;;;5096178;28;20145;-76
2022/02/12 02:07:45;;;;;;;5.53;2.15;;;;;;;;;;5095152;28;20489;-75
2022/02/12 02:10:13;;;;;;;4.25;2.35;;;;;;;;;;5095988;28;20068;-75
2022/02/12 02:12:40;;;;;;;5.00;2.33;;;;;;;;;;5095365;28;20040;-75
2022/02/12 02:15:08;;;;;;;7.38;2.88;;;;;;;;;;5095950;28;20095;-75
2022/02/12 02:17:35;;;;;;;6.70;2.47;;;;;;;;;;5094964;28;20468;-75
2022/02/12 02:20:02;;;;;;;4.35;2.38;;;;;;;;;;5095833;28;20072;-75
2022/02/12 02:22:30;;;;;;;5.63;2.35;;;;;;;;;;5096034;28;20072;-75
2022/02/12 02:24:58;;;;;;;5.88;2.80;;;;;;;;;;5094922;28;20040;-75
2022/02/12 02:27:28;;;;;;;7.05;2.30;;;;;;;;;;5095857;28;20437;-76
2022/02/12 02:29:55;;;;;;;6.55;2.65;;;;;;;;;;5095654;28;20055;-75
2022/02/12 02:32:24;;;;;;;5.93;2.30;;;;;;;;;;5094988;28;20082;-76
2022/02/12 02:34:52;;;;;;;3.97;1.92;;;;;;;;;;5094730;28;20123;-75
2022/02/12 02:37:20;;;;;;;6.22;2.10;;;;;;;;;;5095781;28;20094;-75
2022/02/12 02:39:46;;;;;;;7.85;3.17;;;;;;;;;;5095682;28;20063;-75
2022/02/12 02:42:14;;;;;;;8.35;3.05;;;;;;;;;;5095015;28;20048;-75
2022/02/12 02:44:41;;;;;;;7.13;2.50;;;;;;;;;;5094847;28;20040;-76
2022/02/12 02:49:48;;;;;;;4.57;2.13;;;;;;;;;;5094998;28;20070;-76
2022/02/12 02:57:56;;;;;;;4.25;2.50;;;;;;;;;;5094738;28;20055;-75
2022/02/12 03:00:22;;;;;;;6.72;2.72;;;;;;;;;;5094468;28;20040;-75
2022/02/12 03:02:49;;;;;;;7.40;2.53;;;;;;;;;;5095254;28;20071;-76
2022/02/12 03:05:15;;;;;;;5.60;2.33;;;;;;;;;;5095044;28;20040;-75
2022/02/12 03:07:42;;;;;;;6.60;2.75;;;;;;;;;;5094090;28;20071;-75
2022/02/12 03:10:09;;;;;;;6.75;3.95;;;;;;;;;;5095335;28;20076;-75
2022/02/12 03:12:36;;;;;;;5.72;2.17;;;;;;;;;;5094259;28;20443;-75
2022/02/12 03:15:04;;;;;;;7.97;2.33;;;;;;;;;;5093976;28;20071;-75
2022/02/12 03:17:31;;;;;;;3.20;1.88;;;;;;;;;;5093947;28;20075;-75
2022/02/12 03:19:57;;;;;;;6.15;2.33;;;;;;;;;;5094844;28;20067;-75
2022/02/12 03:22:24;;;;;;;5.85;2.42;;;;;;;;;;5093947;28;20082;-75
2022/02/12 03:24:50;;;;;;;3.75;1.90;;;;;;;;;;5094381;28;20068;-75
2022/02/12 03:27:17;;;;;;;8.32;3.20;;;;;;;;;;5094466;28;20177;-75
2022/02/12 03:29:43;;;;;;;4.60;2.33;;;;;;;;;;5094905;28;20071;-75
2022/02/12 03:32:18;;;;;;;6.93;2.08;;;;;;;;;;5094562;28;20079;-76
2022/02/12 03:34:45;;;;;;;7.43;2.13;;;;;;;;;;5094403;28;20044;-75
2022/02/12 03:37:11;;;;;;;4.93;2.42;;;;;;;;;;5093947;28;20101;-75
2022/02/12 03:39:38;;;;;;;6.32;2.33;;;;;;;;;;5093948;28;20075;-75
2022/02/12 03:42:04;;;;;;;4.95;1.90;;;;;;;;;;5094070;28;20052;-76
2022/02/12 03:44:31;;;;;;;6.80;2.13;;;;;;;;;;5094644;28;20416;-75
2022/02/12 03:46:58;;;;;;;4.43;2.10;;;;;;;;;;5094170;28;20040;-76
2022/02/12 03:49:25;;;;;;;4.22;2.13;;;;;;;;;;5094723;28;20075;-75
2022/02/12 03:51:52;;;;;;;5.35;2.15;;;;;;;;;;5093463;28;20071;-75
2022/02/12 03:54:18;;;;;;;4.38;2.03;;;;;;;;;;5094506;28;20075;-75
2022/02/12 03:56:45;;;;;;;7.47;2.33;;;;;;;;;;5094638;28;20071;-76
2022/02/12 03:59:12;;;;;;;7.45;2.33;;;;;;;;;;5093462;28;20464;-76
2022/02/12 04:01:38;;;;;;;5.72;1.95;;;;;;;;;;5093452;28;20040;-76
2022/02/12 04:04:05;;;;;;;5.80;2.65;;;;;;;;;;5094425;28;20071;-76
2022/02/12 04:06:33;;;;;;;4.68;2.42;;;;;;;;;;5094456;28;20357;-75
2022/02/12 04:09:00;;;;;;;5.35;1.85;;;;;;;;;;5094417;28;20075;-76
2022/02/12 04:11:26;;;;;;;5.60;2.50;;;;;;;;;;5094527;28;20468;-75
2022/02/12 04:13:53;;;;;;;3.95;1.85;;;;;;;;;;5093370;28;20472;-75
2022/02/12 04:16:19;;;;;;;7.22;2.30;;;;;;;;;;5093639;28;20051;-76
2022/02/12 04:18:46;;;;;;;6.20;2.30;;;;;;;;;;5093333;28;20469;-75
2022/02/12 04:21:13;;;;;;;6.72;2.45;;;;;;;;;;5094423;28;20036;-75
2022/02/12 04:23:41;;;;;;;4.43;2.00;;;;;;;;;;5094444;28;20102;-76
2022/02/12 04:26:09;;;;;;;5.20;2.25;;;;;;;;;;5094061;28;20438;-76
2022/02/12 04:28:37;;;;;;;4.07;1.95;;;;;;;;;;5093943;28;20044;-75
2022/02/12 04:31:04;;;;;;;4.55;2.17;;;;;;;;;;5093491;28;20039;-76
2022/02/12 04:33:31;;;;;;;6.75;2.08;;;;;;;;;;5093925;28;20074;-75
2022/02/12 04:35:58;;;;;;;4.65;2.40;;;;;;;;;;5093936;28;20074;-75
2022/02/12 04:38:24;;;;;;;4.25;2.00;;;;;;;;;;5097088;28;20471;-75
2022/02/12 04:40:52;;;;;;;4.68;2.00;;;;;;;;;;5098046;28;20068;-75
2022/02/12 04:43:19;;;;;;;5.13;2.33;;;;;;;;;;5097466;28;20341;-76
2022/02/12 04:45:45;;;;;;;7.03;2.47;;;;;;;;;;5097119;28;20093;-76
2022/02/12 04:48:12;;;;;;;5.78;2.53;;;;;;;;;;5096686;28;20101;-76
2022/02/12 04:50:39;;;;;;;7.57;2.70;;;;;;;;;;5097259;28;20068;-75
2022/02/12 04:53:05;;;;;;;6.57;2.22;;;;;;;;;;5096781;28;20554;-76
2022/02/12 04:55:32;;;;;;;7.82;4.13;;;;;;;;;;5096607;28;20082;-75
2022/02/12 04:58:00;;;;;;;5.65;2.00;;;;;;;;;;5097795;28;20095;-75
2022/02/12 05:00:26;;;;;;;6.28;2.33;;;;;;;;;;5097197;28;20080;-75
2022/02/12 05:02:53;;;;;;;4.60;2.47;;;;;;;;;;5097394;28;20040;-75
2022/02/12 05:05:19;;;;;;;4.80;2.13;;;;;;;;;;5097221;28;20048;-75
2022/02/12 05:07:46;;;;;;;7.93;2.10;;;;;;;;;;5096428;28;20129;-75
2022/02/12 05:10:12;;;;;;;5.78;2.08;;;;;;;;;;5096968;28;20071;-75
2022/02/12 05:12:39;;;;;;;4.97;2.30;;;;;;;;;;5097238;28;20090;-75
2022/02/12 05:15:08;;;;;;;5.13;2.03;;;;;;;;;;5096969;28;20090;-75
2022/02/12 05:17:35;;;;;;;4.32;2.10;;;;;;;;;;5096958;28;20079;-76
2022/02/12 05:20:01;;;;;;;4.10;2.25;;;;;;;;;;5096082;28;20071;-76
2022/02/12 05:22:28;;;;;;;6.90;2.47;;;;;;;;;;5096858;28;20044;-76
2022/02/12 05:24:54;;;;;;;4.57;2.35;;;;;;;;;;5096235;28;20086;-75
2022/02/12 05:27:22;;;;;;;6.25;2.28;;;;;;;;;;5096602;28;20079;-76
2022/02/12 05:29:48;;;;;;;6.20;2.78;;;;;;;;;;5097136;28;20086;-75
2022/02/12 05:32:16;;;;;;;5.50;2.70;;;;;;;;;;5097076;28;20101;-75
2022/02/12 05:34:43;;;;;;;6.03;2.50;;;;;;;;;;5095970;28;20036;-75
2022/02/12 05:37:09;;;;;;;6.60;2.33;;;;;;;;;;5097012;28;20097;-75
2022/02/12 05:39:36;;;;;;;6.18;2.20;;;;;;;;;;5096990;28;20075;-75
2022/02/12 05:42:02;;;;;;;7.30;2.97;;;;;;;;;;5095594;28;20471;-75
2022/02/12 05:44:29;;;;;;;9.10;2.58;;;;;;;;;;5096586;28;20123;-75
2022/02/12 05:46:56;;;;;;;6.45;2.97;;;;;;;;;;5096264;28;20390;-75
2022/02/12 05:49:23;;;;;;;5.78;2.67;;;;;;;;;;5094866;28;20507;-75
2022/02/12 05:51:50;;;;;;;8.82;2.78;;;;;;;;;;5096222;28;20044;-75
2022/02/12 05:54:17;;;;;;;5.93;2.78;;;;;;;;;;5095560;28;20051;-75
2022/02/12 05:56:43;;;;;;;6.20;2.90;;;;;;;;;;5096418;28;20040;-76
2022/02/12 05:59:12;;;;;;;7.10;2.95;;;;;;;;;;5095630;28;20087;-76
2022/02/12 06:01:39;;;;;;;5.35;2.35;;;;;;;;;;5096377;28;20044;-76
2022/02/12 06:04:05;;;;;;;4.40;2.15;;;;;;;;;;5095376;28;20464;-76
2022/02/12 06:06:33;;;;;;;5.55;2.72;;;;;;;;;;5096095;28;20071;-76
2022/02/12 06:09:00;;;;;;;5.03;2.03;;;;;;;;;;5095903;28;20409;-76
2022/02/12 06:11:26;;;;;;;5.88;2.42;;;;;;;;;;5095854;28;20174;-76
2022/02/12 06:13:53;;;;;;;8.75;4.53;;;;;;;;;;5095597;28;20125;-76
2022/02/12 06:16:20;;;;;;;8.65;3.30;;;;;;;;;;5095554;28;20040;-76
2022/02/12 06:18:46;;;;;;;4.85;2.70;;;;;;;;;;5096990;28;20105;-76
2022/02/12 06:21:13;;;;;;;5.90;2.80;;;;;;;;;;5095894;28;20064;-76
2022/02/12 06:23:41;;;;;;;7.30;2.80;;;;;;;;;;5095945;28;20082;-76
2022/02/12 06:26:09;;;;;;;9.57;2.45;;;;;;;;;;5095629;28;20071;-76
2022/02/12 06:28:36;;;;;;;4.78;2.60;;;;;;;;;;5095350;28;20075;-76
2022/02/12 06:31:02;;;;;;;5.28;2.58;;;;;;;;;;5094608;28;20071;-76
2022/02/12 06:33:29;;;;;;;6.97;3.45;;;;;;;;;;5094770;28;20078;-76
2022/02/12 06:35:55;;;;;;;18.77;7.80;;;;;;;;;;5094848;28;20063;-76
2022/02/12 06:38:22;;;;;;;17.52;6.88;;;;;;;;;;5095227;28;20076;-76
2022/02/12 06:40:50;;;;;;;11.40;6.30;;;;;;;;;;5095493;28;20040;-76
2022/02/12 06:43:17;;;;;;;9.77;5.72;;;;;;;;;;5094919;28;20101;-76
2022/02/12 06:45:43;;;;;;;12.32;6.47;;;;;;;;;;5094612;28;20082;-76
2022/02/12 06:48:10;;;;;;;14.63;5.75;;;;;;;;;;5094026;28;20533;-76
2022/02/12 06:50:36;;;;;;;12.48;5.75;;;;;;;;;;5095312;28;20094;-76
2022/02/12 06:53:03;;;;;;;9.88;5.45;;;;;;;;;;5094303;28;20040;-76
2022/02/12 06:55:29;;;;;;;11.23;5.43;;;;;;;;;;5094471;28;20075;-76
2022/02/12 06:57:57;;;;;;;12.45;6.45;;;;;;;;;;5095275;28;20044;-76
2022/02/12 07:00:24;;;;;;;11.95;5.63;;;;;;;;;;5094306;28;20075;-76
2022/02/12 07:02:51;;;;;;;11.75;6.20;;;;;;;;;;5095036;28;20067;-76
2022/02/12 07:05:19;;;;;;;12.77;5.72;;;;;;;;;;5095032;28;20064;-75
2022/02/12 07:07:46;;;;;;;16.55;7.85;;;;;;;;;;5095010;28;20097;-76
2022/02/12 07:10:13;;;;;;;14.73;6.65;;;;;;;;;;5095047;28;20040;-75
2022/02/12 07:12:40;;;;;;;15.98;6.93;;;;;;;;;;5094925;28;20071;-75
2022/02/12 07:15:09;;;;;;;31.13;10.32;;;;;;;;;;5093749;28;20072;-76
2022/02/12 07:17:39;;;;;;;21.45;11.27;;;;;;;;;;5094607;28;20071;-76
2022/02/12 07:20:07;;;;;;;15.32;7.30;;;;;;;;;;5094860;28;20043;-76
2022/02/12 07:22:34;;;;;;;14.85;6.50;;;;;;;;;;5094378;28;20071;-76
2022/02/12 07:25:00;;;;;;;18.08;6.65;;;;;;;;;;5094327;28;20040;-76
2022/02/12 07:27:27;;;;;;;16.08;6.88;;;;;;;;;;5093474;28;20072;-76
2022/02/12 07:29:53;;;;;;;14.55;6.88;;;;;;;;;;5094526;28;20087;-75
2022/02/12 07:32:21;;;;;;;17.38;7.95;;;;;;;;;;5093967;28;20074;-76
2022/02/12 07:34:48;;;;;;;12.05;6.65;;;;;;;;;;5094262;28;20116;-76
2022/02/12 07:37:14;;;;;;;14.20;6.13;;;;;;;;;;5093531;28;20078;-76
2022/02/12 07:39:41;;;;;;;11.65;6.50;;;;;;;;;;5094371;28;20082;-76
2022/02/12 07:42:08;;;;;;;14.82;6.45;;;;;;;;;;5093339;28;20114;-76
2022/02/12 07:44:34;;;;;;;13.25;5.97;;;;;;;;;;5093600;28;20063;-75
2022/02/12 07:47:01;;;;;;;14.30;5.88;;;;;;;;;;5094092;28;20048;-75
2022/02/12 07:49:29;;;;;;;13.52;6.03;;;;;;;;;;5094010;28;20040;-76
2022/02/12 07:51:55;;;;;;;12.55;6.15;;;;;;;;;;5094448;28;20087;-75
2022/02/12 07:54:22;;;;;;;18.23;7.05;;;;;;;;;;5093508;28;20036;-78
2022/02/12 07:56:53;;;;;;;15.65;5.97;;;;;;;;;;5094229;28;20071;-75
2022/02/12 07:59:22;;;;;;;10.23;4.97;;;;;;;;;;5093381;28;20044;-75
2022/02/12 08:01:48;;;;;;;14.55;6.00;;;;;;;;;;5094449;28;20044;-75
2022/02/12 08:04:15;;;;;;;12.07;5.75;;;;;;;;;;5094468;28;20080;-76
2022/02/12 08:09:27;;;;;;;12.77;5.25;;;;;;;;;;5093881;28;20089;-75
2022/02/12 08:12:06;;;;;;;12.93;5.35;;;;;;;;;;5096962;28;20044;-75
2022/02/12 08:14:33;;;;;;;13.60;6.25;;;;;;;;;;5098223;28;20040;-76
2022/02/12 08:17:00;;;;;;;10.07;5.80;;;;;;;;;;5098547;28;20044;-77
2022/02/12 08:19:26;;;;;;;22.58;9.10;;;;;;;;;;5098625;28;20040;-75
2022/02/12 08:21:55;;;;;;;18.45;8.70;;;;;;;;;;5098505;28;20075;-76
2022/02/12 08:24:29;;;;;;;17.67;8.98;;;;;;;;;;5097224;28;20136;-76
2022/02/12 08:26:55;;;;;;;16.20;8.10;;;;;;;;;;5089641;28;20480;-76
2022/02/12 08:29:22;;;;;;;17.98;7.57;;;;;;;;;;5097968;28;20102;-76
2022/02/12 08:31:48;;;;;;;21.45;9.40;;;;;;;;;;5097935;28;20040;-76
2022/02/12 08:34:15;;;;;;;14.43;5.78;;;;;;;;;;5098202;28;20071;-76
2022/02/12 08:36:42;;;;;;;13.25;6.32;;;;;;;;;;5097266;28;20093;-76
2022/02/12 08:39:10;;;;;;;16.50;6.05;;;;;;;;;;5097671;28;20078;-76
2022/02/12 08:41:36;;;;;;;12.70;6.43;;;;;;;;;;5096213;28;20472;-77
2022/02/12 08:44:03;;;;;;;13.18;5.45;;;;;;;;;;5098084;28;20075;-77
2022/02/12 08:46:29;;;;;;;13.18;6.00;;;;;;;;;;5097569;28;20071;-77
2022/02/12 08:48:56;;;;;;;11.10;6.30;;;;;;;;;;5097527;28;20109;-76
2022/02/12 08:51:22;;;;;;;10.30;5.65;;;;;;;;;;5096925;28;20044;-76
2022/02/12 08:53:49;;;;;;;10.95;5.53;;;;;;;;;;5097763;28;20079;-76
2022/02/12 08:56:17;;;;;;;12.43;5.68;;;;;;;;;;5097426;28;20094;-76
2022/02/12 08:58:43;;;;;;;10.57;6.25;;;;;;;;;;5096570;28;20087;-76
2022/02/12 09:01:10;;;;;;;8.93;5.47;;;;;;;;;;5096671;28;20096;-76
2022/02/12 09:03:37;;;;;;;15.63;7.50;;;;;;;;;;5096537;28;20472;-76
2022/02/12 09:06:03;;;;;;;12.00;6.60;;;;;;;;;;5097496;28;20079;-76
2022/02/12 09:08:30;;;;;;;11.65;5.85;;;;;;;;;;5096344;28;20483;-77
2022/02/12 09:10:57;;;;;;;9.95;5.18;;;;;;;;;;5097322;28;20040;-77
2022/02/12 09:13:25;;;;;;;13.13;6.25;;;;;;;;;;5096658;28;20480;-76
2022/02/12 09:15:51;;;;;;;10.85;5.45;;;;;;;;;;5096920;28;20072;-77
2022/02/12 09:18:18;;;;;;;10.13;4.47;;;;;;;;;;5097306;28;20040;-76
2022/02/12 09:20:44;;;;;;;8.23;4.45;;;;;;;;;;5095945;28;20083;-75
2022/02/12 09:23:12;;;;;;;11.30;4.93;;;;;;;;;;5095157;28;20093;-75
2022/02/12 09:25:38;;;;;;;12.73;4.85;;;;;;;;;;5096036;28;20492;-76
2022/02/12 09:28:05;;;;;;;10.77;5.13;;;;;;;;;;5097160;28;20044;-75
2022/02/12 09:30:33;;;;;;;6.28;3.97;;;;;;;;;;5096992;28;20043;-76
2022/02/12 09:32:59;;;;;;;11.38;4.38;;;;;;;;;;5095746;28;20450;-76
2022/02/12 09:35:27;;;;;;;8.60;4.07;;;;;;;;;;5096697;28;20044;-75
2022/02/12 09:37:53;;;;;;;10.10;4.10;;;;;;;;;;5096822;28;20446;-75
2022/02/12 09:40:20;;;;;;;9.07;4.20;;;;;;;;;;5095763;28;20446;-75
2022/02/12 09:42:48;;;;;;;7.90;3.35;;;;;;;;;;5096136;28;20085;-75
2022/02/12 09:45:14;;;;;;;7.40;4.60;;;;;;;;;;5096741;28;20090;-75
2022/02/12 09:47:46;;;;;;;9.20;3.58;;;;;;;;;;5095405;28;20119;-75
2022/02/12 09:50:13;;;;;;;9.63;3.92;;;;;;;;;;5096660;28;20035;-75
2022/02/12 09:52:43;;;;;;;7.50;4.13;;;;;;;;;;5096649;28;20076;-75
2022/02/12 09:55:10;;;;;;;9.65;4.00;;;;;;;;;;5096741;28;20040;-75
2022/02/12 09:57:36;;;;;;;9.65;3.67;;;;;;;;;;5096543;28;20071;-75
2022/02/12 10:00:08;;;;;;;7.72;4.03;;;;;;;;;;5095675;28;20435;-75
2022/02/12 10:02:35;;;;;;;7.18;3.80;;;;;;;;;;5095365;28;20123;-75
2022/02/12 10:05:22;;;;;;;9.05;3.80;;;;;;;;;;5096437;28;20192;-74
2022/02/12 10:07:51;;;;;;;11.15;5.32;;;;;;;;;;5097088;28;20044;-75
2022/02/12 10:10:18;;;;;;;8.43;3.35;;;;;;;;;;5097894;28;20036;-75
2022/02/12 10:12:45;;;;;;;12.60;4.05;;;;;;;;;;5096266;28;20044;-75
2022/02/12 10:15:13;;;;;;;9.43;3.72;;;;;;;;;;5096214;28;20086;-74
2022/02/12 10:17:51;;;;;;;7.82;3.53;;;;;;;;;;5095909;28;20110;-74
2022/02/12 10:20:25;;;;;;;6.32;3.40;;;;;;;;;;5096156;28;20076;-75
2022/02/12 10:22:52;;;;;;;7.32;3.10;;;;;;;;;;5095923;28;20086;-75
2022/02/12 10:25:20;;;;;;;8.63;4.22;;;;;;;;;;5096052;28;20072;-75
2022/02/12 10:27:49;;;;;;;9.45;4.65;;;;;;;;;;5094892;28;20072;-75
2022/02/12 10:30:16;;;;;;;13.43;5.10;;;;;;;;;;5095027;28;20487;-76
2022/02/12 10:32:42;;;;;;;14.50;6.85;;;;;;;;;;5095930;28;20117;-78
2022/02/12 10:35:10;;;;;;;10.32;5.43;;;;;;;;;;5096274;28;20036;-75
2022/02/12 10:37:43;;;;;;;12.02;4.28;;;;;;;;;;5095669;28;20044;-75
2022/02/12 10:40:10;;;;;;;7.88;4.10;;;;;;;;;;5094801;28;20417;-75
2022/02/12 10:42:43;;;;;;;8.40;3.97;;;;;;;;;;5094883;28;20172;-76
2022/02/12 10:45:13;;;;;;;7.97;4.50;;;;;;;;;;5095107;28;20127;-75
2022/02/12 10:47:41;;;;;;;7.85;3.97;;;;;;;;;;5094859;28;20050;-76
2022/02/12 10:50:08;;;;;;;7.18;3.58;;;;;;;;;;5095740;28;20424;-76
2022/02/12 10:52:42;;;;;;;7.65;3.38;;;;;;;;;;5094680;28;20483;-75
2022/02/12 10:55:09;;;;;;;11.65;3.50;;;;;;;;;;5095153;28;20071;-75
2022/02/12 10:57:39;;;;;;;9.65;3.50;;;;;;;;;;5091249;28;20076;-76
2022/02/12 11:00:06;;;;;;;7.43;3.30;;;;;;;;;;5095365;28;20084;-76
2022/02/12 11:02:34;;;;;;;7.65;3.35;;;;;;;;;;5095469;28;20381;-75
2022/02/12 11:05:02;;;;;;;6.82;3.58;;;;;;;;;;5095464;28;20071;-75
2022/02/12 11:07:29;;;;;;;6.47;3.47;;;;;;;;;;5094845;28;20044;-76
2022/02/12 11:09:58;;;;;;;8.10;3.38;;;;;;;;;;5095070;28;20075;-76
2022/02/12 11:12:29;;;;;;;6.90;3.42;;;;;;;;;;5094080;28;20084;-76
2022/02/12 11:14:56;;;;;;;5.88;3.22;;;;;;;;;;5094004;28;20539;-76
2022/02/12 11:17:25;;;;;;;5.05;2.92;;;;;;;;;;5094269;28;20036;-76
2022/02/12 11:19:52;;;;;;;7.22;3.55;;;;;;;;;;5094509;28;20055;-76
2022/02/12 11:22:19;;;;;;;7.88;4.57;;;;;;;;;;5094771;28;20184;-75
2022/02/12 11:24:47;;;;;;;8.75;4.38;;;;;;;;;;5094815;28;20082;-76
2022/02/12 11:27:22;;;;;;;8.57;3.75;;;;;;;;;;5094793;28;20047;-75
2022/02/12 11:29:51;;;;;;;11.68;4.45;;;;;;;;;;5095057;28;20047;-76
2022/02/12 11:32:21;;;;;;;9.05;3.80;;;;;;;;;;5093840;28;20366;-76
2022/02/12 11:35:17;;;;;;;7.05;3.67;;;;;;;;;;5094750;28;20044;-76
2022/02/12 11:37:46;;;;;;;6.82;3.58;;;;;;;;;;5094207;28;20047;-76
2022/02/12 11:40:14;;;;;;;6.18;3.35;;;;;;;;;;5094606;28;20040;-76
2022/02/12 11:42:46;;;;;;;6.90;3.97;;;;;;;;;;5094259;28;20076;-76
2022/02/12 11:45:29;;;;;;;9.00;4.25;;;;;;;;;;5094067;28;20048;-76
2022/02/12 11:48:19;;;;;;;8.20;3.53;;;;;;;;;;5094511;28;20044;-76
2022/02/12 11:50:51;;;;;;;9.43;3.47;;;;;;;;;;5093414;28;20127;-75
2022/02/12 11:53:33;;;;;;;9.50;4.07;;;;;;;;;;5094398;28;20040;-76
2022/02/12 11:56:00;;;;;;;8.80;3.95;;;;;;;;;;5093756;28;20086;-75
2022/02/12 11:59:01;;;;;;;8.50;4.18;;;;;;;;;;5094491;28;20122;-75
2022/02/12 12:01:46;;;;;;;7.63;4.15;;;;;;;;;;5092818;28;20122;-76
2022/02/12 12:04:15;;;;;;;7.80;3.97;;;;;;;;;;5094487;28;20420;-75
2022/02/12 12:07:04;;;;;;;12.98;4.88;;;;;;;;;;5093288;28;20101;-76
2022/02/12 12:09:32;;;;;;;10.18;4.50;;;;;;;;;;5094389;28;20101;-76
2022/02/12 12:12:14;;;;;;;11.27;4.35;;;;;;;;;;5094279;28;20044;-76
2022/02/12 12:14:41;;;;;;;7.22;3.42;;;;;;;;;;5094156;28;20071;-76
2022/02/12 12:17:09;;;;;;;5.30;3.10;;;;;;;;;;5093358;28;20097;-77
2022/02/12 12:19:37;;;;;;;5.72;3.40;;;;;;;;;;5094363;28;20067;-75
2022/02/12 12:22:05;;;;;;;6.68;3.90;;;;;;;;;;5093172;28;20658;-76
2022/02/12 12:24:32;;;;;;;6.75;3.83;;;;;;;;;;5093212;28;20037;-76
2022/02/12 12:27:00;;;;;;;4.40;2.97;;;;;;;;;;5093244;28;20101;-76
2022/02/12 12:32:14;;;;;;;6.50;3.08;;;;;;;;;;5093219;28;20051;-76
2022/02/12 12:34:52;;;;;;;11.38;3.15;;;;;;;;;;5093487;28;20066;-76
2022/02/12 12:37:19;;;;;;;5.72;3.47;;;;;;;;;;5093986;28;20044;-76
2022/02/12 12:39:46;;;;;;;5.43;3.05;;;;;;;;;;5093893;28;20079;-76
2022/02/12 12:42:17;;;;;;;7.70;2.67;;;;;;;;;;5093525;28;20101;-76
2022/02/12 12:44:45;;;;;;;7.47;2.83;;;;;;;;;;5093367;28;20084;-76
2022/02/12 12:47:13;;;;;;;6.47;3.13;;;;;;;;;;5093966;28;20044;-76
2022/02/12 12:49:40;;;;;;;7.25;3.20;;;;;;;;;;5093089;28;20067;-76
2022/02/12 12:52:08;;;;;;;5.70;2.80;;;;;;;;;;5094150;28;20067;-76
2022/02/12 12:54:38;;;;;;;6.65;3.28;;;;;;;;;;5093803;28;20079;-76
2022/02/12 12:57:05;;;;;;;7.40;3.20;;;;;;;;;;5093697;28;20398;-75
2022/02/12 12:59:33;;;;;;;4.55;2.60;;;;;;;;;;5096335;28;20102;-76
2022/02/12 13:02:02;;;;;;;4.32;2.30;;;;;;;;;;5097578;28;20101;-76
2022/02/12 13:04:30;;;;;;;5.68;2.72;;;;;;;;;;5097675;28;20093;-76
2022/02/12 13:06:58;;;;;;;3.67;2.20;;;;;;;;;;5096537;28;20076;-76
2022/02/12 13:09:25;;;;;;;5.35;2.53;;;;;;;;;;5096334;28;20134;-76
2022/02/12 13:11:51;;;;;;;4.78;2.72;;;;;;;;;;5096612;28;20040;-76
2022/02/12 13:14:18;;;;;;;4.18;2.55;;;;;;;;;;5097211;28;20403;-77
2022/02/12 13:16:46;;;;;;;4.57;2.20;;;;;;;;;;5097878;28;20098;-77
2022/02/12 13:19:13;;;;;;;4.38;2.30;;;;;;;;;;5096500;28;20071;-77
2022/02/12 13:21:47;;;;;;;3.33;1.90;;;;;;;;;;5096194;28;20044;-77
2022/02/12 13:24:15;;;;;;;2.90;1.90;;;;;;;;;;5096353;28;20507;-77
2022/02/12 13:26:42;;;;;;;4.35;1.65;;;;;;;;;;5096418;28;20085;-77
2022/02/12 13:29:18;;;;;;;4.30;2.05;;;;;;;;;;5097283;28;20040;-78
2022/02/12 13:31:47;;;;;;;3.50;1.90;;;;;;;;;;5097076;28;20090;-77
2022/02/12 13:34:17;;;;;;;4.45;1.95;;;;;;;;;;5096771;28;20043;-77
2022/02/12 13:36:43;;;;;;;4.63;2.38;;;;;;;;;;5096254;28;20086;-78
2022/02/12 13:39:11;;;;;;;5.63;2.50;;;;;;;;;;5095788;28;20079;-77
2022/02/12 13:41:41;;;;;;;5.78;1.90;;;;;;;;;;5096922;28;20044;-77
2022/02/12 13:44:07;;;;;;;4.22;1.92;;;;;;;;;;5096003;28;20079;-77
2022/02/12 13:46:38;;;;;;;3.40;1.90;;;;;;;;;;5096517;28;20082;-77
2022/02/12 13:49:16;;;;;;;5.82;2.75;;;;;;;;;;5096749;28;20076;-77
2022/02/12 13:51:53;;;;;;;6.90;2.08;;;;;;;;;;5095462;28;20040;-77
2022/02/12 13:54:21;;;;;;;5.60;2.80;;;;;;;;;;5096301;28;20075;-77
2022/02/12 13:56:51;;;;;;;5.63;2.47;;;;;;;;;;5096298;28;20068;-77
2022/02/12 13:59:18;;;;;;;5.88;2.45;;;;;;;;;;5096627;28;20421;-77
2022/02/12 14:01:44;;;;;;;4.72;2.35;;;;;;;;;;5095770;28;20051;-77
2022/02/12 14:04:12;;;;;;;5.93;2.60;;;;;;;;;;5095407;28;20472;-77
2022/02/12 14:06:39;;;;;;;5.80;2.60;;;;;;;;;;5096649;28;20073;-77
2022/02/12 14:09:07;;;;;;;4.05;2.53;;;;;;;;;;5096939;28;20075;-76
2022/02/12 14:11:36;;;;;;;7.03;2.53;;;;;;;;;;5096263;28;20044;-76
2022/02/12 14:14:12;;;;;;;4.38;2.15;;;;;;;;;;5095218;28;20507;-76
2022/02/12 14:16:39;;;;;;;3.47;1.80;;;;;;;;;;5096153;28;20048;-76
2022/02/12 14:19:06;;;;;;;4.78;2.58;;;;;;;;;;5095639;28;20079;-76
2022/02/12 14:21:35;;;;;;;3.40;1.83;;;;;;;;;;5094958;28;20545;-77
2022/02/12 14:24:02;;;;;;;7.25;2.72;;;;;;;;;;5095161;28;20487;-76
2022/02/12 14:26:29;;;;;;;5.20;2.80;;;;;;;;;;5095993;28;20040;-74
2022/02/12 14:28:57;;;;;;;4.45;2.50;;;;;;;;;;5095155;28;20079;-74
2022/02/12 14:31:24;;;;;;;4.95;2.40;;;;;;;;;;5095842;28;20078;-74
2022/02/12 14:33:50;;;;;;;6.22;2.33;;;;;;;;;;5095568;28;20101;-74
2022/02/12 14:36:17;;;;;;;5.43;2.22;;;;;;;;;;5095834;28;20079;-75
2022/02/12 14:38:44;;;;;;;4.93;2.65;;;;;;;;;;5094684;28;20083;-75
2022/02/12 14:41:11;;;;;;;6.57;2.20;;;;;;;;;;5095714;28;20071;-75
2022/02/12 14:43:38;;;;;;;4.88;2.40;;;;;;;;;;5094712;28;20083;-74
2022/02/12 14:46:07;;;;;;;8.95;2.67;;;;;;;;;;5095316;28;20094;-75
2022/02/12 14:48:33;;;;;;;7.60;2.60;;;;;;;;;;5094825;28;20078;-74
2022/02/12 14:51:00;;;;;;;3.92;2.60;;;;;;;;;;5095282;28;20079;-74
2022/02/12 14:53:28;;;;;;;5.70;2.95;;;;;;;;;;5095470;28;20044;-75
2022/02/12 14:55:54;;;;;;;5.60;2.97;;;;;;;;;;5095173;28;20119;-75
2022/02/12 14:58:21;;;;;;;10.05;3.08;;;;;;;;;;5094317;28;20499;-74